sensor_id;sensor_type;location;lat;lon;timestamp;P1;durP1;ratioP1;P2;durP2;ratioP2
1136;SDS011;557;48.466;7.950;2024-01-16T00:01:41;7.67;;;6.40;;
1136;SDS011;557;48.466;7.950;2024-01-16T00:04:08;9.87;;;7.57;;
1136;SDS011;557;48.466;7.950;2024-01-16T00:06:39;8.30;;;5.77;;
1136;SDS011;557;48.466;7.950;2024-01-16T00:09:06;7.53;;;6.67;;
1136;SDS011;557;48.466;7.950;2024-01-16T00:11:33;6.83;;;6.00;;
1136;SDS011;557;48.466;7.950;2024-01-16T00:14:05;9.73;;;6.23;;
1136;SDS011;557;48.466;7.950;2024-01-16T00:16:32;8.13;;;5.97;;
1136;SDS011;557;48.466;7.950;2024-01-16T00:18:59;10.50;;;6.40;;
1136;SDS011;557;48.466;7.950;2024-01-16T00:21:26;9.60;;;7.77;;
1136;SDS011;557;48.466;7.950;2024-01-16T00:23:54;6.97;;;6.07;;
1136;SDS011;557;48.466;7.950;2024-01-16T00:26:21;10.47;;;6.50;;
1136;SDS011;557;48.466;7.950;2024-01-16T00:28:48;9.43;;;6.07;;
1136;SDS011;557;48.466;7.950;2024-01-16T00:31:15;7.33;;;5.33;;
1136;SDS011;557;48.466;7.950;2024-01-16T00:33:42;7.97;;;5.93;;
1136;SDS011;557;48.466;7.950;2024-01-16T00:36:08;8.63;;;5.93;;
1136;SDS011;557;48.466;7.950;2024-01-16T00:38:35;8.97;;;6.20;;
1136;SDS011;557;48.466;7.950;2024-01-16T00:41:03;7.83;;;6.47;;
1136;SDS011;557;48.466;7.950;2024-01-16T00:43:31;8.20;;;6.27;;
1136;SDS011;557;48.466;7.950;2024-01-16T00:46:00;7.97;;;6.03;;
1136;SDS011;557;48.466;7.950;2024-01-16T00:48:27;8.90;;;6.03;;
1136;SDS011;557;48.466;7.950;2024-01-16T00:50:54;7.47;;;6.27;;
1136;SDS011;557;48.466;7.950;2024-01-16T00:53:21;10.27;;;5.83;;
1136;SDS011;557;48.466;7.950;2024-01-16T00:55:47;8.63;;;6.13;;
1136;SDS011;557;48.466;7.950;2024-01-16T00:58:16;11.53;;;5.80;;
1136;SDS011;557;48.466;7.950;2024-01-16T01:00:43;8.20;;;5.47;;
1136;SDS011;557;48.466;7.950;2024-01-16T01:03:10;7.37;;;5.70;;
1136;SDS011;557;48.466;7.950;2024-01-16T01:05:37;7.37;;;5.97;;
1136;SDS011;557;48.466;7.950;2024-01-16T01:08:04;10.03;;;5.87;;
1136;SDS011;557;48.466;7.950;2024-01-16T01:10:32;8.27;;;6.80;;
1136;SDS011;557;48.466;7.950;2024-01-16T01:12:59;9.07;;;6.47;;
1136;SDS011;557;48.466;7.950;2024-01-16T01:15:27;6.63;;;5.93;;
1136;SDS011;557;48.466;7.950;2024-01-16T01:17:53;7.10;;;5.33;;
1136;SDS011;557;48.466;7.950;2024-01-16T01:20:20;8.53;;;6.00;;
1136;SDS011;557;48.466;7.950;2024-01-16T01:22:47;8.00;;;5.53;;
1136;SDS011;557;48.466;7.950;2024-01-16T01:25:14;8.70;;;6.67;;
1136;SDS011;557;48.466;7.950;2024-01-16T01:27:41;9.53;;;6.40;;
1136;SDS011;557;48.466;7.950;2024-01-16T01:30:08;8.33;;;6.00;;
1136;SDS011;557;48.466;7.950;2024-01-16T01:32:37;9.80;;;6.10;;
1136;SDS011;557;48.466;7.950;2024-01-16T01:35:04;9.50;;;6.03;;
1136;SDS011;557;48.466;7.950;2024-01-16T01:37:32;9.43;;;7.00;;
1136;SDS011;557;48.466;7.950;2024-01-16T01:39:59;11.47;;;5.77;;
1136;SDS011;557;48.466;7.950;2024-01-16T01:42:26;5.70;;;5.20;;
1136;SDS011;557;48.466;7.950;2024-01-16T01:44:53;8.10;;;6.70;;
1136;SDS011;557;48.466;7.950;2024-01-16T01:47:19;6.53;;;5.57;;
1136;SDS011;557;48.466;7.950;2024-01-16T01:49:48;6.83;;;5.10;;
1136;SDS011;557;48.466;7.950;2024-01-16T01:52:15;10.27;;;5.70;;
1136;SDS011;557;48.466;7.950;2024-01-16T01:54:43;7.83;;;5.87;;
1136;SDS011;557;48.466;7.950;2024-01-16T01:57:11;12.70;;;5.50;;
1136;SDS011;557;48.466;7.950;2024-01-16T01:59:38;12.07;;;6.40;;
1136;SDS011;557;48.466;7.950;2024-01-16T02:02:04;8.37;;;6.80;;
1136;SDS011;557;48.466;7.950;2024-01-16T02:04:31;8.27;;;5.43;;
1136;SDS011;557;48.466;7.950;2024-01-16T02:07:01;9.50;;;6.57;;
1136;SDS011;557;48.466;7.950;2024-01-16T02:09:29;6.63;;;5.47;;
1136;SDS011;557;48.466;7.950;2024-01-16T02:11:56;9.70;;;5.70;;
1136;SDS011;557;48.466;7.950;2024-01-16T02:14:23;6.90;;;5.43;;
1136;SDS011;557;48.466;7.950;2024-01-16T02:16:50;12.40;;;6.50;;
1136;SDS011;557;48.466;7.950;2024-01-16T02:19:17;10.30;;;6.20;;
1136;SDS011;557;48.466;7.950;2024-01-16T02:21:45;8.07;;;5.77;;
1136;SDS011;557;48.466;7.950;2024-01-16T02:24:16;8.83;;;6.40;;
1136;SDS011;557;48.466;7.950;2024-01-16T02:26:44;9.37;;;6.33;;
1136;SDS011;557;48.466;7.950;2024-01-16T02:29:11;11.20;;;6.90;;
1136;SDS011;557;48.466;7.950;2024-01-16T02:31:38;8.63;;;6.50;;
1136;SDS011;557;48.466;7.950;2024-01-16T02:34:05;8.90;;;6.20;;
1136;SDS011;557;48.466;7.950;2024-01-16T02:36:32;8.53;;;6.20;;
1136;SDS011;557;48.466;7.950;2024-01-16T02:38:59;9.37;;;5.90;;
1136;SDS011;557;48.466;7.950;2024-01-16T02:41:27;11.77;;;7.40;;
1136;SDS011;557;48.466;7.950;2024-01-16T02:43:54;8.90;;;6.23;;
1136;SDS011;557;48.466;7.950;2024-01-16T02:46:21;10.27;;;6.67;;
1136;SDS011;557;48.466;7.950;2024-01-16T02:48:48;7.40;;;5.97;;
1136;SDS011;557;48.466;7.950;2024-01-16T02:51:15;11.20;;;6.57;;
1136;SDS011;557;48.466;7.950;2024-01-16T02:53:42;7.57;;;5.87;;
1136;SDS011;557;48.466;7.950;2024-01-16T02:56:09;10.97;;;7.60;;
1136;SDS011;557;48.466;7.950;2024-01-16T02:58:37;10.20;;;7.37;;
1136;SDS011;557;48.466;7.950;2024-01-16T03:01:04;10.80;;;6.80;;
1136;SDS011;557;48.466;7.950;2024-01-16T03:03:31;11.37;;;7.03;;
1136;SDS011;557;48.466;7.950;2024-01-16T03:05:58;8.73;;;6.63;;
1136;SDS011;557;48.466;7.950;2024-01-16T03:08:25;12.13;;;6.50;;
1136;SDS011;557;48.466;7.950;2024-01-16T03:10:52;9.43;;;6.70;;
1136;SDS011;557;48.466;7.950;2024-01-16T03:13:18;8.90;;;6.63;;
1136;SDS011;557;48.466;7.950;2024-01-16T03:15:47;8.20;;;6.33;;
1136;SDS011;557;48.466;7.950;2024-01-16T03:18:14;8.13;;;5.83;;
1136;SDS011;557;48.466;7.950;2024-01-16T03:20:41;8.37;;;6.13;;
1136;SDS011;557;48.466;7.950;2024-01-16T03:23:07;6.43;;;5.77;;
1136;SDS011;557;48.466;7.950;2024-01-16T03:25:34;10.67;;;6.77;;
1136;SDS011;557;48.466;7.950;2024-01-16T03:28:04;8.40;;;5.70;;
1136;SDS011;557;48.466;7.950;2024-01-16T03:30:33;15.57;;;6.17;;
1136;SDS011;557;48.466;7.950;2024-01-16T03:33:03;8.97;;;5.40;;
1136;SDS011;557;48.466;7.950;2024-01-16T03:35:30;8.50;;;5.97;;
1136;SDS011;557;48.466;7.950;2024-01-16T03:37:58;9.60;;;6.17;;
1136;SDS011;557;48.466;7.950;2024-01-16T03:40:24;7.90;;;5.73;;
1136;SDS011;557;48.466;7.950;2024-01-16T03:42:51;8.90;;;5.90;;
1136;SDS011;557;48.466;7.950;2024-01-16T03:45:19;10.50;;;5.50;;
1136;SDS011;557;48.466;7.950;2024-01-16T03:47:46;7.60;;;5.63;;
1136;SDS011;557;48.466;7.950;2024-01-16T03:50:16;12.30;;;6.13;;
1136;SDS011;557;48.466;7.950;2024-01-16T03:52:43;10.00;;;5.60;;
1136;SDS011;557;48.466;7.950;2024-01-16T03:55:10;6.97;;;5.60;;
1136;SDS011;557;48.466;7.950;2024-01-16T03:57:37;7.33;;;5.70;;
1136;SDS011;557;48.466;7.950;2024-01-16T04:00:04;6.90;;;5.10;;
1136;SDS011;557;48.466;7.950;2024-01-16T04:02:32;12.00;;;5.63;;
1136;SDS011;557;48.466;7.950;2024-01-16T04:04:59;9.97;;;5.70;;
1136;SDS011;557;48.466;7.950;2024-01-16T04:07:27;8.67;;;5.63;;
1136;SDS011;557;48.466;7.950;2024-01-16T04:09:54;11.57;;;6.33;;
1136;SDS011;557;48.466;7.950;2024-01-16T04:12:21;10.20;;;5.70;;
1136;SDS011;557;48.466;7.950;2024-01-16T04:14:48;7.93;;;5.20;;
1136;SDS011;557;48.466;7.950;2024-01-16T04:17:15;12.03;;;6.13;;
1136;SDS011;557;48.466;7.950;2024-01-16T04:19:42;10.00;;;5.80;;
1136;SDS011;557;48.466;7.950;2024-01-16T04:22:09;11.57;;;6.13;;
1136;SDS011;557;48.466;7.950;2024-01-16T04:24:37;12.83;;;6.27;;
1136;SDS011;557;48.466;7.950;2024-01-16T04:27:04;7.97;;;5.50;;
1136;SDS011;557;48.466;7.950;2024-01-16T04:29:31;7.20;;;5.10;;
1136;SDS011;557;48.466;7.950;2024-01-16T04:31:58;9.17;;;5.30;;
1136;SDS011;557;48.466;7.950;2024-01-16T04:34:25;10.57;;;6.50;;
1136;SDS011;557;48.466;7.950;2024-01-16T04:36:52;8.67;;;5.20;;
1136;SDS011;557;48.466;7.950;2024-01-16T04:39:19;7.00;;;5.10;;
1136;SDS011;557;48.466;7.950;2024-01-16T04:41:49;13.47;;;6.80;;
1136;SDS011;557;48.466;7.950;2024-01-16T04:44:16;7.57;;;5.97;;
1136;SDS011;557;48.466;7.950;2024-01-16T04:46:42;11.57;;;6.73;;
1136;SDS011;557;48.466;7.950;2024-01-16T04:49:10;10.10;;;6.40;;
1136;SDS011;557;48.466;7.950;2024-01-16T04:51:37;9.60;;;6.57;;
1136;SDS011;557;48.466;7.950;2024-01-16T04:54:04;10.63;;;6.23;;
1136;SDS011;557;48.466;7.950;2024-01-16T04:56:31;12.40;;;5.80;;
1136;SDS011;557;48.466;7.950;2024-01-16T04:58:59;11.40;;;5.73;;
1136;SDS011;557;48.466;7.950;2024-01-16T05:01:26;10.10;;;5.23;;
1136;SDS011;557;48.466;7.950;2024-01-16T05:03:53;9.67;;;5.50;;
1136;SDS011;557;48.466;7.950;2024-01-16T05:06:20;9.33;;;5.17;;
1136;SDS011;557;48.466;7.950;2024-01-16T05:08:48;11.67;;;5.70;;
1136;SDS011;557;48.466;7.950;2024-01-16T05:11:15;8.20;;;5.87;;
1136;SDS011;557;48.466;7.950;2024-01-16T05:13:42;12.13;;;6.60;;
1136;SDS011;557;48.466;7.950;2024-01-16T05:16:10;12.50;;;5.40;;
1136;SDS011;557;48.466;7.950;2024-01-16T05:18:37;7.27;;;4.80;;
1136;SDS011;557;48.466;7.950;2024-01-16T05:21:04;12.70;;;5.47;;
1136;SDS011;557;48.466;7.950;2024-01-16T05:23:32;9.00;;;5.57;;
1136;SDS011;557;48.466;7.950;2024-01-16T05:25:59;10.10;;;5.90;;
1136;SDS011;557;48.466;7.950;2024-01-16T05:28:26;8.93;;;5.87;;
1136;SDS011;557;48.466;7.950;2024-01-16T05:30:53;11.03;;;6.40;;
1136;SDS011;557;48.466;7.950;2024-01-16T05:33:21;15.37;;;7.00;;
1136;SDS011;557;48.466;7.950;2024-01-16T05:35:48;8.60;;;6.30;;
1136;SDS011;557;48.466;7.950;2024-01-16T05:38:15;9.00;;;6.07;;
1136;SDS011;557;48.466;7.950;2024-01-16T05:40:41;9.00;;;5.80;;
1136;SDS011;557;48.466;7.950;2024-01-16T05:43:08;11.90;;;5.63;;
1136;SDS011;557;48.466;7.950;2024-01-16T05:45:35;11.43;;;6.50;;
1136;SDS011;557;48.466;7.950;2024-01-16T05:48:02;14.50;;;6.80;;
1136;SDS011;557;48.466;7.950;2024-01-16T05:50:33;11.73;;;6.23;;
1136;SDS011;557;48.466;7.950;2024-01-16T05:53:00;9.30;;;5.50;;
1136;SDS011;557;48.466;7.950;2024-01-16T05:55:27;9.77;;;5.40;;
1136;SDS011;557;48.466;7.950;2024-01-16T05:57:57;9.13;;;5.43;;
1136;SDS011;557;48.466;7.950;2024-01-16T06:00:25;8.13;;;5.43;;
1136;SDS011;557;48.466;7.950;2024-01-16T06:02:52;10.37;;;4.83;;
1136;SDS011;557;48.466;7.950;2024-01-16T06:05:19;10.53;;;5.27;;
1136;SDS011;557;48.466;7.950;2024-01-16T06:07:48;8.10;;;6.37;;
1136;SDS011;557;48.466;7.950;2024-01-16T06:10:15;10.07;;;6.20;;
1136;SDS011;557;48.466;7.950;2024-01-16T06:12:42;18.00;;;9.60;;
1136;SDS011;557;48.466;7.950;2024-01-16T06:15:09;18.37;;;10.53;;
1136;SDS011;557;48.466;7.950;2024-01-16T06:17:36;19.03;;;10.63;;
1136;SDS011;557;48.466;7.950;2024-01-16T06:20:04;12.40;;;6.83;;
1136;SDS011;557;48.466;7.950;2024-01-16T06:22:32;8.63;;;6.10;;
1136;SDS011;557;48.466;7.950;2024-01-16T06:25:00;13.03;;;6.97;;
1136;SDS011;557;48.466;7.950;2024-01-16T06:27:28;11.20;;;6.80;;
1136;SDS011;557;48.466;7.950;2024-01-16T06:29:55;10.60;;;6.60;;
1136;SDS011;557;48.466;7.950;2024-01-16T06:32:21;10.10;;;6.20;;
1136;SDS011;557;48.466;7.950;2024-01-16T06:34:48;9.07;;;5.50;;
1136;SDS011;557;48.466;7.950;2024-01-16T06:37:15;13.30;;;6.83;;
1136;SDS011;557;48.466;7.950;2024-01-16T06:39:42;12.80;;;6.43;;
1136;SDS011;557;48.466;7.950;2024-01-16T06:42:10;14.10;;;7.20;;
1136;SDS011;557;48.466;7.950;2024-01-16T06:44:37;11.20;;;6.83;;
1136;SDS011;557;48.466;7.950;2024-01-16T06:47:04;9.00;;;5.90;;
1136;SDS011;557;48.466;7.950;2024-01-16T06:49:31;14.13;;;7.43;;
1136;SDS011;557;48.466;7.950;2024-01-16T06:51:58;9.50;;;6.37;;
1136;SDS011;557;48.466;7.950;2024-01-16T06:54:25;9.90;;;6.37;;
1136;SDS011;557;48.466;7.950;2024-01-16T06:56:52;11.77;;;6.83;;
1136;SDS011;557;48.466;7.950;2024-01-16T06:59:20;9.23;;;5.17;;
1136;SDS011;557;48.466;7.950;2024-01-16T07:01:47;7.87;;;5.57;;
1136;SDS011;557;48.466;7.950;2024-01-16T07:04:14;8.20;;;5.93;;
1136;SDS011;557;48.466;7.950;2024-01-16T07:06:41;8.30;;;6.10;;
1136;SDS011;557;48.466;7.950;2024-01-16T07:09:08;9.70;;;5.57;;
1136;SDS011;557;48.466;7.950;2024-01-16T07:11:37;10.17;;;5.50;;
1136;SDS011;557;48.466;7.950;2024-01-16T07:14:07;6.03;;;4.40;;
1136;SDS011;557;48.466;7.950;2024-01-16T07:16:36;10.57;;;5.17;;
1136;SDS011;557;48.466;7.950;2024-01-16T07:19:04;7.17;;;4.50;;
1136;SDS011;557;48.466;7.950;2024-01-16T07:21:31;9.20;;;5.90;;
1136;SDS011;557;48.466;7.950;2024-01-16T07:23:58;12.53;;;7.17;;
1136;SDS011;557;48.466;7.950;2024-01-16T07:26:25;9.10;;;5.37;;
1136;SDS011;557;48.466;7.950;2024-01-16T07:28:52;6.90;;;4.90;;
1136;SDS011;557;48.466;7.950;2024-01-16T07:31:19;6.90;;;5.00;;
1136;SDS011;557;48.466;7.950;2024-01-16T07:33:48;10.47;;;6.23;;
1136;SDS011;557;48.466;7.950;2024-01-16T07:36:15;10.83;;;6.57;;
1136;SDS011;557;48.466;7.950;2024-01-16T07:38:42;8.20;;;4.90;;
1136;SDS011;557;48.466;7.950;2024-01-16T07:41:09;7.93;;;5.00;;
1136;SDS011;557;48.466;7.950;2024-01-16T07:43:36;10.40;;;5.67;;
1136;SDS011;557;48.466;7.950;2024-01-16T07:46:03;10.10;;;5.70;;
1136;SDS011;557;48.466;7.950;2024-01-16T07:48:30;7.40;;;5.20;;
1136;SDS011;557;48.466;7.950;2024-01-16T07:50:58;10.10;;;6.07;;
1136;SDS011;557;48.466;7.950;2024-01-16T07:53:25;9.87;;;5.23;;
1136;SDS011;557;48.466;7.950;2024-01-16T07:55:53;9.33;;;5.70;;
1136;SDS011;557;48.466;7.950;2024-01-16T07:58:21;9.00;;;4.43;;
1136;SDS011;557;48.466;7.950;2024-01-16T08:00:48;8.40;;;5.03;;
1136;SDS011;557;48.466;7.950;2024-01-16T08:03:15;6.60;;;4.23;;
1136;SDS011;557;48.466;7.950;2024-01-16T08:05:42;5.97;;;5.27;;
1136;SDS011;557;48.466;7.950;2024-01-16T08:08:10;7.23;;;5.17;;
1136;SDS011;557;48.466;7.950;2024-01-16T08:10:37;7.53;;;5.30;;
1136;SDS011;557;48.466;7.950;2024-01-16T08:13:04;9.07;;;3.93;;
1136;SDS011;557;48.466;7.950;2024-01-16T08:15:31;7.40;;;5.53;;
1136;SDS011;557;48.466;7.950;2024-01-16T08:17:59;8.20;;;5.57;;
1136;SDS011;557;48.466;7.950;2024-01-16T08:20:27;6.90;;;5.20;;
1136;SDS011;557;48.466;7.950;2024-01-16T08:22:54;8.87;;;4.93;;
1136;SDS011;557;48.466;7.950;2024-01-16T08:25:22;8.90;;;5.37;;
1136;SDS011;557;48.466;7.950;2024-01-16T08:27:49;9.77;;;6.50;;
1136;SDS011;557;48.466;7.950;2024-01-16T08:30:16;7.90;;;5.47;;
1136;SDS011;557;48.466;7.950;2024-01-16T08:32:43;5.00;;;4.50;;
1136;SDS011;557;48.466;7.950;2024-01-16T08:35:10;8.10;;;5.10;;
1136;SDS011;557;48.466;7.950;2024-01-16T08:37:37;7.30;;;4.90;;
1136;SDS011;557;48.466;7.950;2024-01-16T08:40:05;6.10;;;5.00;;
1136;SDS011;557;48.466;7.950;2024-01-16T08:42:38;7.77;;;5.53;;
1136;SDS011;557;48.466;7.950;2024-01-16T08:45:05;9.00;;;5.30;;
1136;SDS011;557;48.466;7.950;2024-01-16T08:47:36;7.07;;;5.10;;
1136;SDS011;557;48.466;7.950;2024-01-16T08:50:04;8.23;;;5.27;;
1136;SDS011;557;48.466;7.950;2024-01-16T08:52:34;6.80;;;4.70;;
1136;SDS011;557;48.466;7.950;2024-01-16T08:55:01;7.33;;;4.97;;
1136;SDS011;557;48.466;7.950;2024-01-16T08:57:29;7.50;;;5.17;;
1136;SDS011;557;48.466;7.950;2024-01-16T08:59:57;7.47;;;5.40;;
1136;SDS011;557;48.466;7.950;2024-01-16T09:02:24;8.17;;;5.20;;
1136;SDS011;557;48.466;7.950;2024-01-16T09:04:54;8.40;;;5.20;;
1136;SDS011;557;48.466;7.950;2024-01-16T09:07:20;7.87;;;4.87;;
1136;SDS011;557;48.466;7.950;2024-01-16T09:09:48;9.17;;;5.20;;
1136;SDS011;557;48.466;7.950;2024-01-16T09:12:15;7.43;;;5.43;;
1136;SDS011;557;48.466;7.950;2024-01-16T09:14:42;6.70;;;5.90;;
1136;SDS011;557;48.466;7.950;2024-01-16T09:17:10;7.20;;;5.47;;
1136;SDS011;557;48.466;7.950;2024-01-16T09:19:37;7.90;;;6.73;;
1136;SDS011;557;48.466;7.950;2024-01-16T09:22:04;10.10;;;6.30;;
1136;SDS011;557;48.466;7.950;2024-01-16T09:24:32;10.47;;;6.87;;
1136;SDS011;557;48.466;7.950;2024-01-16T09:26:58;7.70;;;6.03;;
1136;SDS011;557;48.466;7.950;2024-01-16T09:29:26;7.63;;;6.83;;
1136;SDS011;557;48.466;7.950;2024-01-16T09:31:53;9.93;;;6.33;;
1136;SDS011;557;48.466;7.950;2024-01-16T09:34:21;7.87;;;5.80;;
1136;SDS011;557;48.466;7.950;2024-01-16T09:36:48;8.00;;;5.07;;
1136;SDS011;557;48.466;7.950;2024-01-16T09:39:15;7.57;;;5.27;;
1136;SDS011;557;48.466;7.950;2024-01-16T09:41:42;7.73;;;5.83;;
1136;SDS011;557;48.466;7.950;2024-01-16T09:44:11;10.10;;;6.90;;
1136;SDS011;557;48.466;7.950;2024-01-16T09:46:38;6.40;;;5.77;;
1136;SDS011;557;48.466;7.950;2024-01-16T09:49:11;8.33;;;6.20;;
1136;SDS011;557;48.466;7.950;2024-01-16T09:51:42;6.17;;;5.57;;
1136;SDS011;557;48.466;7.950;2024-01-16T09:54:09;10.47;;;6.03;;
1136;SDS011;557;48.466;7.950;2024-01-16T09:56:38;6.37;;;5.77;;
1136;SDS011;557;48.466;7.950;2024-01-16T09:59:08;8.83;;;6.57;;
1136;SDS011;557;48.466;7.950;2024-01-16T10:01:36;10.50;;;6.43;;
1136;SDS011;557;48.466;7.950;2024-01-16T10:04:04;8.73;;;7.00;;
1136;SDS011;557;48.466;7.950;2024-01-16T10:06:31;8.13;;;6.87;;
1136;SDS011;557;48.466;7.950;2024-01-16T10:09:01;10.20;;;7.20;;
1136;SDS011;557;48.466;7.950;2024-01-16T10:11:28;9.83;;;7.73;;
1136;SDS011;557;48.466;7.950;2024-01-16T10:13:55;10.00;;;7.50;;
1136;SDS011;557;48.466;7.950;2024-01-16T10:16:24;9.40;;;7.67;;
1136;SDS011;557;48.466;7.950;2024-01-16T10:19:21;9.60;;;7.60;;
1136;SDS011;557;48.466;7.950;2024-01-16T10:21:48;9.70;;;8.20;;
1136;SDS011;557;48.466;7.950;2024-01-16T10:24:18;10.77;;;8.10;;
1136;SDS011;557;48.466;7.950;2024-01-16T10:26:44;9.57;;;8.37;;
1136;SDS011;557;48.466;7.950;2024-01-16T10:29:11;11.57;;;9.00;;
1136;SDS011;557;48.466;7.950;2024-01-16T10:31:38;12.93;;;8.07;;
1136;SDS011;557;48.466;7.950;2024-01-16T10:34:15;10.10;;;8.27;;
1136;SDS011;557;48.466;7.950;2024-01-16T10:36:46;13.00;;;8.50;;
1136;SDS011;557;48.466;7.950;2024-01-16T10:39:14;10.80;;;8.20;;
1136;SDS011;557;48.466;7.950;2024-01-16T10:41:43;12.23;;;9.60;;
1136;SDS011;557;48.466;7.950;2024-01-16T10:44:20;10.33;;;9.20;;
1136;SDS011;557;48.466;7.950;2024-01-16T10:46:47;21.20;;;14.57;;
1136;SDS011;557;48.466;7.950;2024-01-16T10:49:14;11.23;;;10.13;;
1136;SDS011;557;48.466;7.950;2024-01-16T10:51:42;10.03;;;9.20;;
1136;SDS011;557;48.466;7.950;2024-01-16T10:54:11;10.33;;;9.33;;
1136;SDS011;557;48.466;7.950;2024-01-16T10:56:44;10.10;;;9.13;;
1136;SDS011;557;48.466;7.950;2024-01-16T10:59:15;10.23;;;9.53;;
1136;SDS011;557;48.466;7.950;2024-01-16T11:01:45;11.50;;;10.10;;
1136;SDS011;557;48.466;7.950;2024-01-16T11:04:16;10.90;;;10.00;;
1136;SDS011;557;48.466;7.950;2024-01-16T11:06:45;11.73;;;10.63;;
1136;SDS011;557;48.466;7.950;2024-01-16T11:09:13;11.07;;;10.07;;
1136;SDS011;557;48.466;7.950;2024-01-16T11:11:41;11.23;;;10.10;;
1136;SDS011;557;48.466;7.950;2024-01-16T11:14:11;11.50;;;10.40;;
1136;SDS011;557;48.466;7.950;2024-01-16T11:16:40;14.77;;;11.53;;
1136;SDS011;557;48.466;7.950;2024-01-16T11:19:08;13.53;;;12.33;;
1136;SDS011;557;48.466;7.950;2024-01-16T11:21:37;14.70;;;11.00;;
1136;SDS011;557;48.466;7.950;2024-01-16T11:24:05;12.40;;;11.20;;
1136;SDS011;557;48.466;7.950;2024-01-16T11:26:33;13.10;;;11.73;;
1136;SDS011;557;48.466;7.950;2024-01-16T11:32:03;12.27;;;11.07;;
1136;SDS011;557;48.466;7.950;2024-01-16T11:37:25;16.37;;;12.87;;
1136;SDS011;557;48.466;7.950;2024-01-16T11:42:52;10.50;;;9.73;;
1136;SDS011;557;48.466;7.950;2024-01-16T11:48:17;12.13;;;11.13;;
1136;SDS011;557;48.466;7.950;2024-01-16T11:50:45;11.97;;;11.07;;
1136;SDS011;557;48.466;7.950;2024-01-16T11:53:31;12.10;;;11.00;;
1136;SDS011;557;48.466;7.950;2024-01-16T11:56:12;12.20;;;11.20;;
1136;SDS011;557;48.466;7.950;2024-01-16T11:58:57;12.03;;;11.03;;
1136;SDS011;557;48.466;7.950;2024-01-16T12:01:36;11.80;;;10.77;;
1136;SDS011;557;48.466;7.950;2024-01-16T12:04:04;12.20;;;11.10;;
1136;SDS011;557;48.466;7.950;2024-01-16T12:06:31;11.73;;;10.83;;
1136;SDS011;557;48.466;7.950;2024-01-16T12:09:12;11.50;;;10.50;;
1136;SDS011;557;48.466;7.950;2024-01-16T12:11:40;11.80;;;10.63;;
1136;SDS011;557;48.466;7.950;2024-01-16T12:14:08;12.90;;;11.60;;
1136;SDS011;557;48.466;7.950;2024-01-16T12:16:37;13.07;;;12.00;;
1136;SDS011;557;48.466;7.950;2024-01-16T12:19:04;12.70;;;11.70;;
1136;SDS011;557;48.466;7.950;2024-01-16T12:21:33;11.60;;;10.70;;
1136;SDS011;557;48.466;7.950;2024-01-16T12:24:00;12.43;;;11.43;;
1136;SDS011;557;48.466;7.950;2024-01-16T12:26:29;12.33;;;11.33;;
1136;SDS011;557;48.466;7.950;2024-01-16T12:28:57;13.10;;;11.87;;
1136;SDS011;557;48.466;7.950;2024-01-16T12:31:24;12.43;;;11.33;;
1136;SDS011;557;48.466;7.950;2024-01-16T12:33:52;13.07;;;12.00;;
1136;SDS011;557;48.466;7.950;2024-01-16T12:36:19;12.70;;;11.40;;
1136;SDS011;557;48.466;7.950;2024-01-16T12:38:53;13.00;;;12.10;;
1136;SDS011;557;48.466;7.950;2024-01-16T12:41:22;13.00;;;11.70;;
1136;SDS011;557;48.466;7.950;2024-01-16T12:43:50;13.17;;;11.93;;
1136;SDS011;557;48.466;7.950;2024-01-16T12:46:17;14.23;;;12.40;;
1136;SDS011;557;48.466;7.950;2024-01-16T12:48:44;13.27;;;12.10;;
1136;SDS011;557;48.466;7.950;2024-01-16T12:51:21;14.07;;;12.80;;
1136;SDS011;557;48.466;7.950;2024-01-16T12:53:48;13.77;;;12.67;;
1136;SDS011;557;48.466;7.950;2024-01-16T12:56:18;13.23;;;11.97;;
1136;SDS011;557;48.466;7.950;2024-01-16T12:58:46;14.10;;;12.80;;
1136;SDS011;557;48.466;7.950;2024-01-16T13:01:23;14.57;;;13.23;;
1136;SDS011;557;48.466;7.950;2024-01-16T13:03:51;14.43;;;12.87;;
1136;SDS011;557;48.466;7.950;2024-01-16T13:06:18;14.50;;;13.40;;
1136;SDS011;557;48.466;7.950;2024-01-16T13:08:47;14.93;;;13.63;;
1136;SDS011;557;48.466;7.950;2024-01-16T13:11:14;15.03;;;13.80;;
1136;SDS011;557;48.466;7.950;2024-01-16T13:13:45;15.60;;;14.30;;
1136;SDS011;557;48.466;7.950;2024-01-16T13:16:13;15.50;;;14.00;;
1136;SDS011;557;48.466;7.950;2024-01-16T13:18:42;14.40;;;13.40;;
1136;SDS011;557;48.466;7.950;2024-01-16T13:21:09;14.33;;;13.20;;
1136;SDS011;557;48.466;7.950;2024-01-16T13:23:38;15.00;;;13.80;;
1136;SDS011;557;48.466;7.950;2024-01-16T13:26:05;15.53;;;14.30;;
1136;SDS011;557;48.466;7.950;2024-01-16T13:28:32;15.30;;;14.00;;
1136;SDS011;557;48.466;7.950;2024-01-16T13:30:59;16.30;;;14.70;;
1136;SDS011;557;48.466;7.950;2024-01-16T13:33:26;16.37;;;14.87;;
1136;SDS011;557;48.466;7.950;2024-01-16T13:35:53;16.10;;;15.00;;
1136;SDS011;557;48.466;7.950;2024-01-16T13:38:20;16.33;;;14.93;;
1136;SDS011;557;48.466;7.950;2024-01-16T13:40:49;16.03;;;14.83;;
1136;SDS011;557;48.466;7.950;2024-01-16T13:43:16;16.73;;;15.53;;
1136;SDS011;557;48.466;7.950;2024-01-16T13:45:43;16.33;;;15.20;;
1136;SDS011;557;48.466;7.950;2024-01-16T13:48:14;17.77;;;16.27;;
1136;SDS011;557;48.466;7.950;2024-01-16T13:50:42;16.23;;;15.03;;
1136;SDS011;557;48.466;7.950;2024-01-16T13:53:09;15.80;;;14.50;;
1136;SDS011;557;48.466;7.950;2024-01-16T13:55:39;15.87;;;14.77;;
1136;SDS011;557;48.466;7.950;2024-01-16T13:58:07;15.30;;;14.40;;
1136;SDS011;557;48.466;7.950;2024-01-16T14:00:34;16.97;;;15.60;;
1136;SDS011;557;48.466;7.950;2024-01-16T14:03:01;16.63;;;15.33;;
1136;SDS011;557;48.466;7.950;2024-01-16T14:05:30;16.47;;;15.37;;
1136;SDS011;557;48.466;7.950;2024-01-16T14:07:57;16.40;;;15.40;;
1136;SDS011;557;48.466;7.950;2024-01-16T14:10:24;17.00;;;15.60;;
1136;SDS011;557;48.466;7.950;2024-01-16T14:12:51;16.90;;;15.70;;
1136;SDS011;557;48.466;7.950;2024-01-16T14:15:19;16.30;;;15.30;;
1136;SDS011;557;48.466;7.950;2024-01-16T14:17:49;17.03;;;15.90;;
1136;SDS011;557;48.466;7.950;2024-01-16T14:20:17;16.30;;;15.20;;
1136;SDS011;557;48.466;7.950;2024-01-16T14:22:47;16.77;;;15.53;;
1136;SDS011;557;48.466;7.950;2024-01-16T14:25:14;18.50;;;17.00;;
1136;SDS011;557;48.466;7.950;2024-01-16T14:27:44;16.57;;;15.33;;
1136;SDS011;557;48.466;7.950;2024-01-16T14:30:13;17.27;;;16.17;;
1136;SDS011;557;48.466;7.950;2024-01-16T14:32:43;15.87;;;14.77;;
1136;SDS011;557;48.466;7.950;2024-01-16T14:35:11;16.63;;;15.53;;
1136;SDS011;557;48.466;7.950;2024-01-16T14:37:39;18.10;;;16.73;;
1136;SDS011;557;48.466;7.950;2024-01-16T14:40:07;17.57;;;16.37;;
1136;SDS011;557;48.466;7.950;2024-01-16T14:42:37;16.50;;;15.40;;
1136;SDS011;557;48.466;7.950;2024-01-16T14:45:05;17.63;;;16.33;;
1136;SDS011;557;48.466;7.950;2024-01-16T14:47:33;17.47;;;15.97;;
1136;SDS011;557;48.466;7.950;2024-01-16T14:50:01;17.33;;;16.03;;
1136;SDS011;557;48.466;7.950;2024-01-16T14:52:29;17.87;;;16.43;;
1136;SDS011;557;48.466;7.950;2024-01-16T14:54:57;18.20;;;17.00;;
1136;SDS011;557;48.466;7.950;2024-01-16T14:57:24;17.93;;;16.53;;
1136;SDS011;557;48.466;7.950;2024-01-16T14:59:52;17.43;;;16.23;;
1136;SDS011;557;48.466;7.950;2024-01-16T15:02:19;17.13;;;16.03;;
1136;SDS011;557;48.466;7.950;2024-01-16T15:04:46;17.07;;;15.77;;
1136;SDS011;557;48.466;7.950;2024-01-16T15:07:14;17.67;;;16.30;;
1136;SDS011;557;48.466;7.950;2024-01-16T15:09:41;16.90;;;15.60;;
1136;SDS011;557;48.466;7.950;2024-01-16T15:12:08;17.60;;;16.40;;
1136;SDS011;557;48.466;7.950;2024-01-16T15:14:35;16.33;;;15.33;;
1136;SDS011;557;48.466;7.950;2024-01-16T15:17:02;16.40;;;15.30;;
1136;SDS011;557;48.466;7.950;2024-01-16T15:19:29;16.50;;;15.10;;
1136;SDS011;557;48.466;7.950;2024-01-16T15:21:56;15.37;;;14.13;;
1136;SDS011;557;48.466;7.950;2024-01-16T15:24:25;16.73;;;15.23;;
1136;SDS011;557;48.466;7.950;2024-01-16T15:26:53;15.93;;;14.57;;
1136;SDS011;557;48.466;7.950;2024-01-16T15:29:20;16.20;;;14.90;;
1136;SDS011;557;48.466;7.950;2024-01-16T15:31:50;16.43;;;14.73;;
1136;SDS011;557;48.466;7.950;2024-01-16T15:34:17;15.07;;;13.87;;